Winifred, Montana
Current Conditions -  °F | °C
As of 8:54 AM on Thursday 23 Oct 2014 (Local Time) from KLWT Reporting Station
Clear Clear  
Wind Chill: 55°   Ceiling: Unl
Heat Index: 55°   Visibility: 10mi
Dew Point: 31°   Wind: 15mph
Humidity: 40%   Direction: 250°WSW
Pressure: 29.86"   Gusts: NA
Location:  47.56°N, 109.37°W
Report Text: KLWT 231454Z AUTO 25013KT 10SM CLR 13/M01 A2986 RMK AO2 SLP099 T01281006 55000
Loading
Personal Weather Stations






























Interactive Weather Map
Tropical Storm Tracking
New forecast layout! Learn more

10-Day Weather Forecast

Advertisements
Track Severe Weather on mobile